Time;durP1;ratioP1;P1;durP2;ratioP2;P2;SDS_P1;SDS_P2;PMS_P1;PMS_P2;Temp;Humidity;BMP_temperature;BMP_pressure;BME280_temperature;BME280_humidity;BME280_pressure;Samples;Min_cycle;Max_cycle;Signal;HPM_P1;HPM_P2
2022/10/04 00:01:44;;;;;;;67.90;37.20;;;21.40;76.40;;;;;;220186;1268;23948;-53
2022/10/04 00:06:57;;;;;;;71.80;37.10;;;21.40;76.70;;;;;;220308;1268;25358;-49
2022/10/04 00:12:02;;;;;;;72.20;38.50;;;21.40;76.70;;;;;;222084;1273;25294;-50
2022/10/04 00:17:23;;;;;;;67.50;37.20;;;21.40;76.30;;;;;;221014;1269;22639;-51
2022/10/04 00:22:29;;;;;;;65.20;35.80;;;21.40;76.60;;;;;;220310;1268;22616;-53
2022/10/04 00:27:37;;;;;;;63.10;32.70;;;21.40;76.40;;;;;;220313;1268;23076;-51
2022/10/04 00:32:41;;;;;;;58.70;33.50;;;21.50;76.60;;;;;;220509;1268;24224;-53
2022/10/04 00:38:00;;;;;;;60.50;31.80;;;21.60;76.40;;;;;;220230;1268;22568;-53
2022/10/04 00:43:23;;;;;;;59.70;31.60;;;21.60;75.80;;;;;;220511;1271;22541;-52
2022/10/04 00:48:45;;;;;;;56.20;30.30;;;21.60;75.60;;;;;;220407;1268;22631;-54
2022/10/04 00:54:05;;;;;;;55.50;31.10;;;21.60;75.60;;;;;;220553;1268;25248;-52
2022/10/04 00:59:26;;;;;;;53.20;30.60;;;21.50;75.50;;;;;;220546;1269;25255;-53
2022/10/04 01:04:40;;;;;;;55.40;30.90;;;21.50;75.30;;;;;;220116;1268;22589;-48
2022/10/04 01:09:58;;;;;;;49.90;28.00;;;21.50;75.10;;;;;;220648;1268;22528;-54
2022/10/04 01:15:13;;;;;;;48.30;26.60;;;21.50;75.20;;;;;;220470;1268;24298;-51
2022/10/04 01:20:35;;;;;;;52.70;29.80;;;21.50;75.00;;;;;;220273;1269;22523;-52
2022/10/04 01:25:47;;;;;;;50.90;29.40;;;21.50;75.00;;;;;;220379;1268;25378;-50
2022/10/04 01:30:52;;;;;;;52.60;29.50;;;21.40;75.10;;;;;;220399;1268;22561;-53
2022/10/04 01:35:57;;;;;;;55.30;31.10;;;21.40;74.80;;;;;;220495;1268;22547;-53
2022/10/04 01:41:04;;;;;;;50.30;29.80;;;21.40;74.70;;;;;;220446;1268;25546;-53
2022/10/04 01:46:22;;;;;;;52.60;29.10;;;21.30;74.70;;;;;;220533;1268;22532;-50
2022/10/04 01:51:29;;;;;;;50.30;28.60;;;21.40;74.80;;;;;;220366;1268;25357;-51
2022/10/04 01:56:42;;;;;;;52.70;29.70;;;21.40;74.60;;;;;;220621;1268;22530;-52
2022/10/04 02:01:48;;;;;;;51.60;29.50;;;21.30;74.50;;;;;;220632;1268;22997;-53
2022/10/04 02:06:55;;;;;;;49.90;27.40;;;21.30;74.40;;;;;;220393;1268;22544;-54
2022/10/04 02:11:59;;;;;;;46.40;25.90;;;21.30;74.40;;;;;;220451;1268;22755;-50
2022/10/04 02:17:09;;;;;;;46.60;27.60;;;21.30;74.80;;;;;;220746;1268;22760;-54
2022/10/04 02:22:13;;;;;;;46.90;26.10;;;21.30;74.40;;;;;;220888;1268;22548;-52
2022/10/04 02:27:16;;;;;;;44.60;27.30;;;21.20;74.30;;;;;;220556;1268;25539;-52
2022/10/04 02:37:43;;;;;;;46.00;25.90;;;21.20;74.40;;;;;;220150;1268;24247;-51
2022/10/04 02:42:47;;;;;;;43.20;26.40;;;21.20;74.30;;;;;;220576;1268;22622;-52
2022/10/04 02:47:57;;;;;;;41.90;24.40;;;21.20;74.20;;;;;;220497;1268;22529;-51
2022/10/04 02:53:10;;;;;;;40.30;24.30;;;21.20;74.50;;;;;;220635;1267;22550;-53
2022/10/04 02:58:17;;;;;;;38.90;24.20;;;21.20;74.40;;;;;;220551;1268;22597;-51
2022/10/04 03:03:31;;;;;;;41.40;23.40;;;21.10;74.30;;;;;;220643;1268;24217;-50
2022/10/04 03:08:45;;;;;;;38.10;23.20;;;21.20;74.30;;;;;;220071;1267;25284;-53
2022/10/04 03:13:58;;;;;;;36.80;23.40;;;21.10;73.70;;;;;;220480;1268;24798;-53
2022/10/04 03:19:14;;;;;;;39.30;23.30;;;21.10;74.10;;;;;;220132;1268;22569;-51
2022/10/04 03:24:24;;;;;;;38.00;21.70;;;21.10;74.00;;;;;;220701;1268;25414;-50
2022/10/04 03:29:34;;;;;;;40.50;21.60;;;21.10;74.10;;;;;;220161;1268;24214;-51
2022/10/04 03:34:40;;;;;;;39.40;23.50;;;21.10;74.20;;;;;;220410;1267;26227;-49
2022/10/04 03:40:07;;;;;;;36.10;21.60;;;21.10;74.40;;;;;;220497;1267;26490;-52
2022/10/04 03:45:15;;;;;;;38.40;22.60;;;21.00;73.70;;;;;;220350;1267;24212;-52
2022/10/04 03:50:24;;;;;;;35.60;21.90;;;21.10;74.10;;;;;;220605;1267;22615;-53
2022/10/04 03:55:35;;;;;;;34.20;20.60;;;21.00;74.00;;;;;;220326;1267;26480;-54
2022/10/04 04:00:50;;;;;;;35.50;21.00;;;21.00;74.40;;;;;;220353;1267;23418;-51
2022/10/04 04:06:01;;;;;;;34.20;21.20;;;21.00;73.90;;;;;;220183;1268;22526;-55
2022/10/04 04:11:20;;;;;;;31.20;19.90;;;21.00;73.90;;;;;;220318;1267;22641;-53
2022/10/04 04:16:38;;;;;;;33.70;20.60;;;21.00;74.10;;;;;;220359;1267;22575;-53
2022/10/04 04:21:43;;;;;;;31.70;20.20;;;21.00;74.00;;;;;;220302;1267;23038;-51
2022/10/04 04:26:53;;;;;;;33.10;19.80;;;21.00;73.90;;;;;;220523;1267;22536;-55
2022/10/04 04:32:05;;;;;;;33.00;20.10;;;20.90;73.90;;;;;;220534;1267;22896;-50
2022/10/04 04:37:11;;;;;;;31.50;18.90;;;20.90;74.60;;;;;;220033;1267;25258;-54
2022/10/04 04:42:22;;;;;;;29.30;18.00;;;20.90;74.00;;;;;;220111;1267;24207;-52
2022/10/04 04:47:35;;;;;;;29.20;18.50;;;20.90;73.90;;;;;;220210;1267;22873;-53
2022/10/04 04:52:40;;;;;;;29.00;18.30;;;20.90;74.00;;;;;;220273;1267;22649;-51
2022/10/04 04:57:48;;;;;;;29.70;18.20;;;20.90;74.20;;;;;;220473;1267;22532;-52
2022/10/04 05:02:55;;;;;;;31.60;18.40;;;20.90;74.00;;;;;;220292;1268;22525;-51
2022/10/04 05:08:24;;;;;;;27.40;17.00;;;20.80;73.80;;;;;;220567;1267;22529;-51
2022/10/04 05:13:38;;;;;;;27.30;17.70;;;20.80;73.90;;;;;;220300;1267;22525;-53
2022/10/04 05:18:44;;;;;;;28.60;17.10;;;20.90;73.90;;;;;;220231;1268;22541;-54
2022/10/04 05:23:48;;;;;;;27.70;15.40;;;21.00;73.90;;;;;;220797;1267;24256;-51
2022/10/04 05:28:58;;;;;;;22.50;14.10;;;21.10;73.90;;;;;;220171;1268;25668;-52
2022/10/04 05:34:26;;;;;;;20.00;13.00;;;21.30;72.70;;;;;;220310;1267;25327;-50
2022/10/04 05:39:39;;;;;;;19.40;12.70;;;21.50;72.50;;;;;;220405;1267;22553;-51
2022/10/04 05:44:57;;;;;;;19.30;12.90;;;21.60;71.60;;;;;;220820;1268;22557;-53
2022/10/04 05:50:02;;;;;;;19.10;12.40;;;21.70;71.60;;;;;;220904;1267;22560;-51
2022/10/04 05:55:27;;;;;;;16.80;11.10;;;21.70;71.50;;;;;;220554;1267;240224;-54
2022/10/04 06:00:45;;;;;;;17.40;11.30;;;21.70;71.50;;;;;;220378;1267;24211;-54
2022/10/04 06:05:54;;;;;;;16.80;11.20;;;21.60;71.50;;;;;;220749;1267;25236;-52
2022/10/04 06:11:19;;;;;;;17.20;11.80;;;21.60;71.40;;;;;;220610;1267;24222;-49
2022/10/04 06:16:43;;;;;;;18.40;11.30;;;21.60;71.40;;;;;;220261;1267;24211;-48
2022/10/04 06:21:59;;;;;;;15.10;10.70;;;21.60;71.50;;;;;;220601;1267;24241;-55
2022/10/04 06:27:09;;;;;;;15.90;10.90;;;21.60;71.30;;;;;;220446;1267;22531;-51
2022/10/04 06:32:22;;;;;;;15.00;10.50;;;21.60;71.50;;;;;;220608;1267;25010;-54
2022/10/04 06:37:48;;;;;;;18.00;10.20;;;21.60;71.50;;;;;;220698;1267;22738;-59
2022/10/04 06:43:33;;;;;;;14.70;9.60;;;21.60;71.50;;;;;;220587;1267;24211;-51
2022/10/04 06:48:45;;;;;;;12.20;9.40;;;21.60;71.30;;;;;;219334;1274;24280;-57
2022/10/04 06:54:19;;;;;;;14.00;9.00;;;21.70;71.50;;;;;;220115;1267;24185;-54
2022/10/04 06:59:51;;;;;;;16.50;9.40;;;21.70;71.50;;;;;;220231;1267;22549;-49
2022/10/04 07:05:01;;;;;;;14.30;9.50;;;21.80;71.30;;;;;;220150;1267;22550;-56
2022/10/04 07:10:19;;;;;;;14.70;9.50;;;21.80;71.60;;;;;;220497;1267;24225;-55
2022/10/04 07:15:29;;;;;;;14.10;8.80;;;21.90;72.50;;;;;;220294;1267;22576;-55
2022/10/04 07:20:35;;;;;;;15.50;8.90;;;21.90;72.00;;;;;;220627;1267;22555;-50
2022/10/04 07:25:52;;;;;;;14.90;8.80;;;22.00;72.10;;;;;;220280;1267;23085;-53
2022/10/04 07:31:14;;;;;;;13.20;8.40;;;22.00;72.00;;;;;;220559;1267;25346;-51
2022/10/04 07:36:27;;;;;;;12.60;7.80;;;22.00;72.40;;;;;;220378;1267;22530;-51
2022/10/04 07:41:38;;;;;;;14.60;8.00;;;22.10;71.90;;;;;;220100;1267;25245;-56
2022/10/04 07:46:42;;;;;;;13.60;8.50;;;22.10;72.10;;;;;;220351;1267;22640;-51
2022/10/04 07:51:51;;;;;;;17.20;7.90;;;22.00;72.00;;;;;;220523;1267;22536;-56
2022/10/04 07:57:00;;;;;;;11.40;7.70;;;22.10;71.90;;;;;;220210;1267;22734;-52
2022/10/04 08:02:23;;;;;;;11.80;7.60;;;22.00;72.00;;;;;;220538;1267;22590;-54
2022/10/04 08:08:02;;;;;;;19.80;6.80;;;22.00;71.80;;;;;;220396;1267;24768;-53
2022/10/04 08:13:14;;;;;;;23.80;9.60;;;22.00;71.70;;;;;;219855;1267;24307;-53
2022/10/04 08:18:54;;;;;;;16.40;7.90;;;22.00;72.20;;;;;;220206;1267;25411;-53
2022/10/04 08:24:04;;;;;;;14.80;7.70;;;22.00;73.30;;;;;;220910;1267;25339;-54
2022/10/04 08:35:00;;;;;;;13.10;7.10;;;22.10;73.30;;;;;;221030;1267;22630;-55
2022/10/04 08:40:07;;;;;;;90.60;29.20;;;22.00;73.20;;;;;;220131;1267;22553;-53
2022/10/04 08:45:31;;;;;;;393.80;116.00;;;22.00;74.10;;;;;;220604;1267;22773;-53
2022/10/04 08:51:05;;;;;;;414.40;128.30;;;22.00;74.00;;;;;;220576;1267;25420;-51
2022/10/04 08:56:23;;;;;;;434.40;131.10;;;22.00;74.20;;;;;;220531;1267;22543;-51
2022/10/04 09:01:44;;;;;;;351.60;104.30;;;22.10;73.40;;;;;;220812;1267;22535;-53
2022/10/04 09:06:53;;;;;;;;;;;22.10;73.00;;;;;;220540;1267;22896;-52
2022/10/04 09:12:18;;;;;;;317.20;99.40;;;22.10;72.90;;;;;;220559;1267;25319;-50
2022/10/04 09:18:00;;;;;;;274.10;89.20;;;22.20;73.00;;;;;;220476;1267;25602;-51
2022/10/04 09:23:22;;;;;;;259.20;81.90;;;22.30;73.30;;;;;;220566;1267;22609;-49
2022/10/04 09:28:38;;;;;;;240.80;79.00;;;22.30;72.40;;;;;;220297;1267;22599;-51
2022/10/04 09:33:54;;;;;;;330.20;101.60;;;22.30;72.30;;;;;;220378;1267;22550;-51
2022/10/04 09:39:06;;;;;;;506.00;165.20;;;22.30;72.10;;;;;;220437;1267;25532;-53
2022/10/04 09:44:39;;;;;;;594.20;204.40;;;22.20;72.90;;;;;;220054;1267;23046;-54
2022/10/04 09:50:17;;;;;;;645.90;228.80;;;22.30;74.40;;;;;;220022;1267;25443;-51
2022/10/04 09:55:48;;;;;;;562.50;196.90;;;22.30;73.40;;;;;;219911;1267;25659;-52
2022/10/04 10:01:49;;;;;;;564.40;197.40;;;22.20;73.90;;;;;;220057;1267;26182;-49
2022/10/04 10:07:09;;;;;;;503.30;177.40;;;22.20;73.30;;;;;;218925;1276;24155;-49
2022/10/04 10:18:26;;;;;;;470.00;161.80;;;22.20;73.10;;;;;;219937;1267;24669;-53
2022/10/04 10:23:58;;;;;;;443.00;158.70;;;22.30;72.70;;;;;;219928;1267;24268;-50
2022/10/04 10:29:37;;;;;;;429.60;151.60;;;22.20;72.50;;;;;;220295;1267;24419;-53
2022/10/04 10:35:02;;;;;;;416.80;145.40;;;22.20;72.40;;;;;;220348;1267;22609;-50
2022/10/04 10:40:31;;;;;;;389.00;137.80;;;22.20;72.30;;;;;;220291;1267;25349;-54
2022/10/04 10:45:46;;;;;;;376.20;133.60;;;22.20;72.10;;;;;;220210;1267;25324;-52
2022/10/04 10:51:19;;;;;;;339.90;124.90;;;22.30;72.00;;;;;;220330;1267;24667;-54
2022/10/04 10:56:50;;;;;;;324.10;117.70;;;22.40;71.40;;;;;;220217;1267;25307;-54
2022/10/04 11:02:04;;;;;;;310.60;112.20;;;22.50;71.50;;;;;;220330;1267;27121;-53
2022/10/04 11:07:18;;;;;;;306.20;114.70;;;22.40;71.50;;;;;;220306;1267;24252;-52
2022/10/04 11:12:34;;;;;;;282.00;105.90;;;22.40;71.20;;;;;;220290;1267;24256;-53
2022/10/04 11:18:05;;;;;;;267.10;99.40;;;22.60;70.90;;;;;;220144;1267;24218;-50
2022/10/04 11:23:47;;;;;;;249.10;95.90;;;22.60;70.70;;;;;;220212;1266;24373;-49
2022/10/04 11:29:25;;;;;;;241.60;90.40;;;22.70;70.70;;;;;;220467;1267;25511;-53
2022/10/04 11:35:04;;;;;;;207.50;84.40;;;22.70;70.40;;;;;;220377;1267;22863;-52
2022/10/04 11:40:22;;;;;;;221.70;89.40;;;22.80;70.10;;;;;;220328;1267;22561;-53
2022/10/04 11:45:42;;;;;;;205.00;83.60;;;22.70;70.30;;;;;;220282;1267;22596;-52
2022/10/04 11:51:09;;;;;;;206.40;81.00;;;22.70;70.20;;;;;;220440;1267;22531;-50
2022/10/04 11:56:33;;;;;;;203.50;80.80;;;22.60;70.10;;;;;;220256;1268;22553;-51
2022/10/04 12:01:48;;;;;;;202.20;79.70;;;22.60;71.50;;;;;;219972;1268;22561;-53
2022/10/04 12:07:23;;;;;;;184.00;75.50;;;22.70;71.20;;;;;;220173;1267;22657;-52
2022/10/04 12:12:38;;;;;;;179.10;72.80;;;22.70;71.40;;;;;;220566;1267;22592;-55
2022/10/04 12:18:20;;;;;;;166.90;67.80;;;22.80;70.90;;;;;;220294;1266;24263;-55
2022/10/04 12:23:26;;;;;;;158.00;67.00;;;22.90;70.60;;;;;;220218;1267;26456;-55
2022/10/04 12:29:06;;;;;;;154.30;64.10;;;22.90;71.00;;;;;;220463;1267;25318;-54
2022/10/04 12:34:39;;;;;;;148.40;68.90;;;23.00;70.90;;;;;;220055;1267;22696;-56
2022/10/04 12:39:47;;;;;;;139.90;62.80;;;22.90;70.60;;;;;;220412;1267;25323;-54
2022/10/04 12:45:02;;;;;;;135.60;63.30;;;22.90;70.90;;;;;;220299;1267;24200;-53
2022/10/04 12:50:21;;;;;;;133.90;59.10;;;23.00;70.60;;;;;;220654;1267;24287;-53
2022/10/04 12:56:10;;;;;;;132.40;57.40;;;23.00;70.00;;;;;;220070;1267;25297;-53
2022/10/04 13:01:39;;;;;;;117.10;53.70;;;23.00;70.30;;;;;;220365;1267;25261;-57
2022/10/04 13:06:56;;;;;;;120.70;54.30;;;23.10;69.90;;;;;;219845;1267;24776;-51
2022/10/04 13:12:19;;;;;;;110.30;54.50;;;23.10;69.80;;;;;;220114;1267;22554;-51
2022/10/04 13:17:45;;;;;;;115.60;53.30;;;23.20;69.60;;;;;;220239;1267;22570;-56
2022/10/04 13:22:57;;;;;;;105.00;48.30;;;23.20;69.40;;;;;;220521;1267;24363;-57
2022/10/04 13:28:06;;;;;;;100.20;47.70;;;23.30;69.30;;;;;;220345;1267;22560;-55
2022/10/04 13:34:10;;;;;;;99.00;45.70;;;23.30;69.20;;;;;;220389;1267;23178;-50
2022/10/04 13:39:42;;;;;;;96.50;43.80;;;23.30;69.10;;;;;;220062;1267;25346;-51
2022/10/04 13:44:48;;;;;;;90.20;42.50;;;23.40;69.00;;;;;;220298;1267;25631;-58
2022/10/04 13:50:25;;;;;;;82.10;40.50;;;23.40;69.00;;;;;;220250;1267;24475;-53
2022/10/04 14:01:18;;;;;;;87.90;41.10;;;23.30;68.80;;;;;;220243;1267;22553;-54
2022/10/04 14:06:25;;;;;;;79.20;41.30;;;23.30;68.70;;;;;;220133;1267;24219;-57
2022/10/04 14:11:44;;;;;;;84.40;39.20;;;23.30;68.60;;;;;;220407;1268;22598;-54
2022/10/04 14:17:12;;;;;;;78.10;39.60;;;23.30;68.50;;;;;;220070;1267;25354;-59
2022/10/04 14:22:27;;;;;;;70.00;36.80;;;23.30;68.70;;;;;;220409;1267;26202;-56
2022/10/04 14:28:09;;;;;;;74.70;35.20;;;23.30;68.50;;;;;;220428;1267;22600;-53
2022/10/04 14:33:38;;;;;;;71.40;34.30;;;23.20;68.70;;;;;;220206;1267;22566;-54
2022/10/04 14:39:00;;;;;;;69.10;32.10;;;23.10;68.70;;;;;;220150;1267;22635;-53
2022/10/04 14:44:26;;;;;;;67.40;33.00;;;23.10;68.80;;;;;;220181;1267;24285;-52
2022/10/04 14:49:56;;;;;;;66.80;32.60;;;23.20;68.90;;;;;;220084;1268;22716;-55
2022/10/04 14:55:15;;;;;;;60.10;30.60;;;23.10;68.90;;;;;;220275;1267;22550;-53
2022/10/04 15:00:22;;;;;;;60.40;29.50;;;23.10;69.00;;;;;;219918;1267;24277;-55
2022/10/04 15:05:58;;;;;;;63.50;30.10;;;23.00;69.30;;;;;;219970;1267;26060;-53
2022/10/04 15:11:16;;;;;;;54.40;25.70;;;23.00;69.30;;;;;;220074;1267;22571;-55
2022/10/04 15:16:51;;;;;;;71.60;36.50;;;23.00;69.80;;;;;;219972;1267;22553;-54
2022/10/04 15:22:29;;;;;;;71.20;34.10;;;23.00;71.30;;;;;;220278;1267;25236;-56
2022/10/04 15:27:46;;;;;;;66.80;33.90;;;23.10;72.10;;;;;;220025;1267;25623;-55
2022/10/04 15:33:27;;;;;;;64.80;32.30;;;23.10;71.80;;;;;;220242;1267;22599;-52
2022/10/04 15:38:48;;;;;;;66.10;31.20;;;23.10;71.70;;;;;;220002;1267;24314;-53
2022/10/04 15:44:10;;;;;;;58.50;29.60;;;23.10;71.90;;;;;;219892;1268;26291;-55
2022/10/04 15:49:48;;;;;;;66.00;32.40;;;23.00;71.90;;;;;;220118;1270;26749;-54
2022/10/04 15:55:26;;;;;;;70.10;32.50;;;23.00;72.70;;;;;;220193;1270;25396;-48
2022/10/04 16:00:52;;;;;;;64.00;29.70;;;22.90;72.40;;;;;;220136;1268;24756;-53
2022/10/04 16:06:16;;;;;;;67.10;30.50;;;22.90;72.80;;;;;;220011;1270;24250;-51
2022/10/04 16:11:28;;;;;;;67.00;32.70;;;22.90;73.00;;;;;;220112;1269;23990;-52
2022/10/04 16:16:39;;;;;;;62.70;29.50;;;22.80;72.40;;;;;;219911;1267;22553;-50
2022/10/04 16:22:06;;;;;;;58.30;30.30;;;22.80;72.80;;;;;;220686;1270;22534;-53
2022/10/04 16:27:28;;;;;;;61.60;29.50;;;22.70;71.80;;;;;;220174;1270;22641;-51
2022/10/04 16:33:21;;;;;;;56.50;29.00;;;22.70;71.80;;;;;;220015;1269;25598;-52
2022/10/04 16:45:02;;;;;;;61.40;29.60;;;22.60;71.60;;;;;;219951;1268;22541;-52
2022/10/04 16:50:46;;;;;;;62.20;27.20;;;22.60;71.60;;;;;;219965;1268;26001;-48
2022/10/04 16:56:01;;;;;;;55.20;27.10;;;22.50;72.00;;;;;;220232;1268;23366;-54
2022/10/04 17:01:24;;;;;;;51.40;25.20;;;22.50;71.90;;;;;;220255;1267;22808;-50
2022/10/04 17:06:47;;;;;;;50.90;24.70;;;22.40;71.70;;;;;;220346;1267;26631;-54
2022/10/04 17:12:06;;;;;;;50.30;24.50;;;22.40;72.00;;;;;;220158;1269;26525;-52
2022/10/04 17:17:30;;;;;;;46.70;23.30;;;22.30;72.50;;;;;;220420;1267;25324;-49
2022/10/04 17:22:51;;;;;;;48.80;24.10;;;22.30;72.30;;;;;;220199;1268;24256;-49
2022/10/04 17:28:15;;;;;;;45.00;22.30;;;22.30;72.50;;;;;;220241;1267;22769;-49
2022/10/04 17:33:35;;;;;;;41.10;21.10;;;22.20;71.60;;;;;;220460;1267;22602;-52
2022/10/04 17:38:45;;;;;;;44.20;21.40;;;22.20;71.70;;;;;;220150;1267;22577;-51
2022/10/04 17:44:10;;;;;;;40.30;20.20;;;22.20;71.60;;;;;;220376;1267;24185;-54
2022/10/04 17:55:17;;;;;;;48.10;18.50;;;22.10;70.90;;;;;;219964;1267;284491;-52
2022/10/04 18:00:25;;;;;;;35.90;18.10;;;22.20;71.20;;;;;;220417;1270;22818;-53
2022/10/04 18:05:45;;;;;;;32.90;17.90;;;22.20;70.30;;;;;;220218;1267;25637;-53
2022/10/04 18:11:02;;;;;;;34.60;17.30;;;22.20;71.40;;;;;;220212;1267;22559;-49
2022/10/04 18:16:21;;;;;;;35.00;17.80;;;22.10;71.30;;;;;;220217;1267;22550;-50
2022/10/04 18:21:31;;;;;;;30.90;16.00;;;22.10;71.50;;;;;;220353;1268;23761;-51
2022/10/04 18:26:58;;;;;;;30.30;17.10;;;22.10;71.40;;;;;;220518;1268;23198;-53
2022/10/04 18:32:36;;;;;;;28.90;16.70;;;22.10;71.60;;;;;;220549;1268;22542;-51
2022/10/04 18:37:44;;;;;;;31.10;15.00;;;22.20;71.70;;;;;;220284;1267;23923;-50
2022/10/04 18:43:00;;;;;;;24.10;13.60;;;22.20;72.30;;;;;;219877;1270;24254;-50
2022/10/04 18:48:35;;;;;;;34.50;15.60;;;22.20;72.50;;;;;;219894;1271;24502;-58
2022/10/04 18:54:36;;;;;;;77.80;28.20;;;22.20;72.50;;;;;;219987;1267;22589;-59
2022/10/04 19:06:01;;;;;;;308.00;95.50;;;22.10;72.70;;;;;;220108;1269;22564;-58
2022/10/04 19:11:15;;;;;;;447.40;136.80;;;22.30;72.90;;;;;;220190;1267;24325;-57
2022/10/04 19:17:03;;;;;;;432.80;135.20;;;22.20;72.30;;;;;;220069;1267;22603;-58
2022/10/04 19:22:41;;;;;;;619.60;213.90;;;22.20;72.70;;;;;;219999;1267;25346;-58
2022/10/04 19:28:12;;;;;;;636.20;227.30;;;22.10;72.80;;;;;;220748;1271;22633;-59
2022/10/04 19:33:40;;;;;;;667.10;239.30;;;22.20;73.80;;;;;;220255;1270;22537;-59
2022/10/04 19:39:03;;;;;;;648.40;237.80;;;22.10;73.40;;;;;;220475;1271;27035;-57
2022/10/04 19:44:46;;;;;;;672.00;247.80;;;22.10;73.00;;;;;;220484;1268;22703;-57
2022/10/04 19:50:15;;;;;;;608.80;213.50;;;22.10;73.50;;;;;;220485;1270;22529;-59
2022/10/04 19:56:02;;;;;;;580.80;218.70;;;22.00;74.60;;;;;;220427;1268;22538;-59
2022/10/04 20:01:15;;;;;;;575.40;215.10;;;22.00;73.40;;;;;;220168;1271;22800;-53
2022/10/04 20:06:25;;;;;;;542.80;198.80;;;22.00;73.60;;;;;;220233;1267;23951;-54
2022/10/04 20:11:39;;;;;;;511.00;188.80;;;22.00;73.70;;;;;;220388;1268;22538;-51
2022/10/04 20:16:53;;;;;;;502.20;190.20;;;21.90;73.40;;;;;;220453;1271;22556;-57
2022/10/04 20:22:26;;;;;;;495.00;186.40;;;21.90;73.70;;;;;;220619;1268;24265;-56
2022/10/04 20:27:45;;;;;;;480.40;176.80;;;21.80;73.60;;;;;;220490;1269;23044;-56
2022/10/04 20:32:55;;;;;;;468.70;179.10;;;21.80;73.80;;;;;;220627;1268;26581;-52
2022/10/04 20:38:00;;;;;;;450.80;169.30;;;21.70;74.10;;;;;;220329;1268;22665;-52
2022/10/04 20:44:00;;;;;;;463.80;170.00;;;21.70;74.40;;;;;;220378;1268;24208;-55
2022/10/04 20:49:15;;;;;;;444.50;165.30;;;21.70;74.50;;;;;;220423;1267;22701;-53
2022/10/04 20:54:27;;;;;;;432.30;158.40;;;21.70;74.30;;;;;;220320;1267;22580;-53
2022/10/04 20:59:38;;;;;;;434.00;161.90;;;21.70;74.20;;;;;;220504;1268;22577;-54
2022/10/04 21:04:45;;;;;;;401.70;148.90;;;21.70;74.30;;;;;;220510;1268;22557;-54
2022/10/04 21:09:52;;;;;;;415.30;157.30;;;21.60;74.30;;;;;;220876;1268;24078;-52
2022/10/04 21:15:23;;;;;;;411.90;147.80;;;21.70;77.30;;;;;;220707;1268;22525;-55
2022/10/04 21:20:48;;;;;;;388.00;140.40;;;21.70;77.20;;;;;;220496;1268;22765;-53
2022/10/04 21:26:29;;;;;;;361.40;133.90;;;21.70;76.60;;;;;;220468;1268;25327;-54
2022/10/04 21:31:34;;;;;;;383.40;139.80;;;21.70;76.80;;;;;;220369;1268;25253;-54
2022/10/04 21:36:41;;;;;;;363.60;134.00;;;21.70;76.30;;;;;;220318;1268;22690;-53
2022/10/04 21:41:48;;;;;;;347.60;133.00;;;21.70;76.50;;;;;;220157;1268;22733;-55
2022/10/04 21:46:59;;;;;;;336.70;130.60;;;21.70;76.30;;;;;;220401;1268;24343;-53
2022/10/04 21:52:04;;;;;;;319.00;126.90;;;21.70;76.30;;;;;;220418;1268;24203;-53
2022/10/04 21:57:10;;;;;;;319.00;124.70;;;21.70;76.40;;;;;;220363;1268;25400;-54
2022/10/04 22:02:14;;;;;;;311.00;121.30;;;21.60;76.00;;;;;;220323;1268;26708;-55
2022/10/04 22:07:20;;;;;;;307.10;120.90;;;21.60;76.20;;;;;;220392;1268;25199;-54
2022/10/04 22:12:25;;;;;;;269.50;111.60;;;21.60;76.20;;;;;;220224;1268;22535;-55
2022/10/04 22:17:35;;;;;;;262.00;108.30;;;21.60;76.80;;;;;;220353;1267;25248;-52
2022/10/04 22:22:42;;;;;;;278.20;112.90;;;21.60;76.80;;;;;;220221;1268;24348;-54
2022/10/04 22:27:46;;;;;;;271.90;110.70;;;21.50;76.20;;;;;;220151;1268;25525;-55
2022/10/04 22:32:54;;;;;;;256.20;108.20;;;21.60;76.80;;;;;;220508;1268;22579;-57
2022/10/04 22:38:01;;;;;;;238.00;103.20;;;21.60;76.30;;;;;;220608;1267;22573;-52
2022/10/04 22:43:12;;;;;;;240.60;107.10;;;21.60;77.00;;;;;;220287;1268;22535;-58
2022/10/04 22:48:15;;;;;;;239.40;102.20;;;21.60;77.00;;;;;;220568;1267;22509;-56
2022/10/04 22:53:26;;;;;;;244.70;102.50;;;21.50;76.70;;;;;;220356;1268;25465;-58
2022/10/04 22:58:30;;;;;;;235.70;102.50;;;21.40;77.20;;;;;;220260;1268;25242;-58
2022/10/04 23:03:35;;;;;;;233.90;100.80;;;21.40;77.30;;;;;;220451;1268;25481;-56
2022/10/04 23:08:42;;;;;;;216.90;95.70;;;21.40;77.70;;;;;;220411;1267;22707;-58
2022/10/04 23:13:45;;;;;;;217.60;96.10;;;21.30;77.30;;;;;;220709;1267;24309;-58
2022/10/04 23:19:00;;;;;;;206.90;89.60;;;21.30;77.20;;;;;;220717;1267;24569;-56
2022/10/04 23:24:20;;;;;;;200.90;89.50;;;21.30;77.20;;;;;;220358;1268;22535;-57
2022/10/04 23:29:33;;;;;;;192.20;87.80;;;21.30;77.20;;;;;;220629;1267;24408;-57
2022/10/04 23:34:39;;;;;;;178.30;85.40;;;21.30;77.10;;;;;;220353;1267;24314;-57
2022/10/04 23:39:43;;;;;;;183.60;85.30;;;21.30;77.10;;;;;;220332;1267;22594;-57
2022/10/04 23:44:49;;;;;;;187.30;85.90;;;21.30;77.10;;;;;;221087;1268;24372;-58
2022/10/04 23:49:53;;;;;;;174.60;81.50;;;21.20;77.20;;;;;;220429;1267;25235;-56
2022/10/04 23:54:58;;;;;;;176.40;80.60;;;21.30;76.80;;;;;;220136;1268;25588;-55
